Time;durP1;ratioP1;P1;durP2;ratioP2;P2;SDS_P1;SDS_P2;PMS_P1;PMS_P2;Temp;Humidity;BMP_temperature;BMP_pressure;BME280_temperature;BME280_humidity;BME280_pressure;Samples;Min_cycle;Max_cycle;Signal;HPM_P1;HPM_P2
2022/10/14 07:43:49;;;;;;;28.15;21.40;;;10.90;94.60;;;;;;5032901;28;20051;-58
2022/10/14 07:46:31;;;;;;;45.40;22.65;;;11.10;94.70;;;;;;5026321;28;20104;-58
2022/10/14 07:49:10;;;;;;;23.10;20.02;;;11.10;94.60;;;;;;5009879;28;20091;-56
2022/10/14 07:51:36;;;;;;;33.45;21.55;;;11.20;94.70;;;;;;5009185;28;20026;-58
2022/10/14 07:54:05;;;;;;;46.40;24.63;;;11.20;94.70;;;;;;5024260;28;20038;-58
2022/10/14 07:56:33;;;;;;;30.50;21.35;;;11.30;94.60;;;;;;5030153;28;20014;-58
2022/10/14 07:58:59;;;;;;;45.25;24.73;;;11.30;94.60;;;;;;5020730;28;20044;-58
2022/10/14 08:01:28;;;;;;;39.45;23.48;;;11.30;94.50;;;;;;5018043;28;20439;-58
2022/10/14 08:03:55;;;;;;;28.97;20.60;;;11.40;94.60;;;;;;5019496;28;20479;-58
2022/10/14 08:06:24;;;;;;;40.58;24.08;;;11.40;94.60;;;;;;5029541;28;20044;-58
2022/10/14 08:09:11;;;;;;;37.40;25.25;;;11.40;94.60;;;;;;5019535;28;20123;-58
2022/10/14 08:11:37;;;;;;;30.58;22.70;;;11.50;94.60;;;;;;5030873;28;20159;-58
2022/10/14 08:14:07;;;;;;;69.32;23.80;;;11.70;94.70;;;;;;5032693;28;20037;-58
2022/10/14 08:16:35;;;;;;;55.85;21.75;;;11.50;94.30;;;;;;5016835;28;20044;-58
2022/10/14 08:19:06;;;;;;;84.90;23.30;;;11.50;94.40;;;;;;5033019;28;20022;-58
2022/10/14 08:21:32;;;;;;;27.80;19.98;;;11.40;94.40;;;;;;5028890;28;20033;-58
2022/10/14 08:23:58;;;;;;;26.95;20.63;;;11.40;94.40;;;;;;5020456;28;20027;-57
2022/10/14 08:26:55;;;;;;;24.77;20.48;;;11.40;94.50;;;;;;5009190;28;21405;-57
2022/10/14 08:29:22;;;;;;;28.73;20.30;;;11.50;94.50;;;;;;5005956;28;20466;-54
2022/10/14 08:31:49;;;;;;;36.45;22.02;;;11.50;94.40;;;;;;5007288;28;20471;-57
2022/10/14 08:34:19;;;;;;;30.25;22.05;;;11.60;94.50;;;;;;5024980;28;20064;-58
2022/10/14 08:36:47;;;;;;;37.03;22.58;;;11.60;94.40;;;;;;5021827;28;20486;-55
2022/10/14 08:39:18;;;;;;;30.58;21.58;;;11.60;94.40;;;;;;5022798;28;20071;-55
2022/10/14 08:42:05;;;;;;;39.17;23.13;;;11.70;94.50;;;;;;5025930;28;20112;-58
2022/10/14 08:44:42;;;;;;;28.42;22.83;;;11.80;94.30;;;;;;5026096;28;20041;-58
2022/10/14 08:47:15;;;;;;;30.60;21.30;;;11.70;94.30;;;;;;5053634;28;20033;-57
2022/10/14 08:50:02;;;;;;;30.42;21.65;;;11.70;94.30;;;;;;5054901;28;20125;-56
2022/10/14 08:52:41;;;;;;;28.20;22.05;;;11.70;94.20;;;;;;5049345;28;20032;-55
2022/10/14 08:55:29;;;;;;;29.17;21.50;;;11.70;94.10;;;;;;5053422;28;20033;-57
2022/10/14 08:58:21;;;;;;;26.65;20.75;;;11.70;94.20;;;;;;5048150;28;20056;-56
2022/10/14 09:00:51;;;;;;;28.75;21.10;;;11.80;94.20;;;;;;5033509;28;20084;-57
2022/10/14 09:03:32;;;;;;;25.65;20.48;;;11.70;94.10;;;;;;5021105;28;20022;-57
2022/10/14 09:06:28;;;;;;;25.60;21.05;;;11.70;94.10;;;;;;5040268;28;20033;-53
2022/10/14 09:09:16;;;;;;;24.27;20.25;;;11.80;94.10;;;;;;5046231;28;20044;-55
2022/10/14 09:11:45;;;;;;;30.83;19.92;;;11.90;94.20;;;;;;5043983;28;20021;-56
2022/10/14 09:14:18;;;;;;;25.65;20.70;;;12.00;94.10;;;;;;5028612;28;20034;-56
2022/10/14 09:16:48;;;;;;;26.20;20.92;;;12.00;94.00;;;;;;5017152;28;20401;-57
2022/10/14 09:19:40;;;;;;;25.52;21.52;;;12.10;94.00;;;;;;5016398;28;20025;-56
2022/10/14 09:22:13;;;;;;;22.92;19.35;;;12.00;93.90;;;;;;5028211;28;20071;-53
2022/10/14 09:24:44;;;;;;;23.38;18.77;;;12.00;93.90;;;;;;5053722;28;20021;-52
2022/10/14 09:27:21;;;;;;;24.38;19.83;;;12.20;94.00;;;;;;5030715;28;20056;-55
2022/10/14 09:30:11;;;;;;;22.90;18.73;;;12.40;94.00;;;;;;5050118;28;20029;-56
2022/10/14 09:32:47;;;;;;;22.33;18.20;;;12.30;93.70;;;;;;5038868;28;20029;-55
2022/10/14 09:35:33;;;;;;;22.27;18.58;;;12.10;93.50;;;;;;5046903;28;20038;-55
2022/10/14 09:38:00;;;;;;;24.20;18.27;;;12.10;93.50;;;;;;5039082;28;20043;-55
2022/10/14 09:40:29;;;;;;;26.23;19.17;;;12.20;93.60;;;;;;5025774;28;20048;-52
2022/10/14 09:43:19;;;;;;;24.70;18.98;;;12.40;93.80;;;;;;5028485;28;20628;-53
2022/10/14 09:45:54;;;;;;;24.95;20.38;;;12.40;93.60;;;;;;5023276;28;20105;-53
2022/10/14 09:48:33;;;;;;;24.15;20.10;;;12.50;93.50;;;;;;5011987;28;20470;-54
2022/10/14 09:51:03;;;;;;;27.52;21.25;;;12.50;93.30;;;;;;5010924;28;20017;-50
2022/10/14 09:53:41;;;;;;;27.58;20.95;;;12.60;93.40;;;;;;5018013;28;20534;-52
2022/10/14 09:56:09;;;;;;;29.05;20.67;;;12.60;93.40;;;;;;5032753;28;20033;-55
2022/10/14 09:58:51;;;;;;;25.45;20.60;;;12.50;93.00;;;;;;5030534;28;20458;-51
2022/10/14 10:01:25;;;;;;;29.13;22.17;;;12.50;93.20;;;;;;5031284;28;20029;-55
2022/10/14 10:03:53;;;;;;;29.13;19.73;;;12.60;93.20;;;;;;5031862;28;20029;-51
2022/10/14 10:06:26;;;;;;;26.60;21.45;;;12.60;93.00;;;;;;5032021;28;20041;-53
2022/10/14 10:08:52;;;;;;;28.48;21.33;;;12.60;93.20;;;;;;5030907;28;20486;-52
2022/10/14 10:11:39;;;;;;;26.33;21.80;;;12.70;93.10;;;;;;5039615;28;20056;-51
2022/10/14 10:14:29;;;;;;;28.98;21.92;;;12.90;92.90;;;;;;5030764;28;20073;-52
2022/10/14 10:17:16;;;;;;;27.48;22.33;;;12.90;92.90;;;;;;5027266;28;20144;-51
2022/10/14 10:19:51;;;;;;;30.17;23.17;;;12.90;92.60;;;;;;5018775;28;20044;-50
2022/10/14 10:22:25;;;;;;;28.45;21.65;;;12.90;92.30;;;;;;5028547;28;20044;-55
2022/10/14 10:25:25;;;;;;;27.40;20.58;;;12.90;92.40;;;;;;5030668;28;20036;-50
2022/10/14 10:27:55;;;;;;;29.58;22.25;;;13.10;92.40;;;;;;5029788;28;20072;-55
2022/10/14 10:30:45;;;;;;;28.75;21.75;;;13.00;91.80;;;;;;5030135;28;20033;-55
2022/10/14 10:33:33;;;;;;;28.88;21.85;;;13.00;91.80;;;;;;5026985;28;20120;-50
2022/10/14 10:36:11;;;;;;;28.20;21.63;;;13.00;91.70;;;;;;5012235;28;20034;-53
2022/10/14 10:39:14;;;;;;;30.15;23.65;;;12.90;91.30;;;;;;5016252;28;20592;-52
2022/10/14 10:41:57;;;;;;;24.35;21.23;;;13.10;91.60;;;;;;5026010;28;20030;-51
2022/10/14 10:44:50;;;;;;;31.13;22.13;;;13.10;91.20;;;;;;5002876;28;20088;-52
2022/10/14 10:47:46;;;;;;;27.38;21.48;;;13.10;90.90;;;;;;5043071;28;20033;-54
2022/10/14 10:50:20;;;;;;;27.88;21.15;;;13.10;90.80;;;;;;5034120;28;20033;-54
2022/10/14 10:52:49;;;;;;;30.67;22.00;;;13.00;90.70;;;;;;5050553;28;20117;-50
2022/10/14 10:55:42;;;;;;;27.45;22.65;;;13.10;90.90;;;;;;5051834;28;20029;-52
2022/10/14 10:58:45;;;;;;;26.90;22.15;;;13.20;91.00;;;;;;5049780;28;20059;-51
2022/10/14 11:01:36;;;;;;;27.80;23.23;;;13.20;90.90;;;;;;5049674;28;20037;-53
2022/10/14 11:04:26;;;;;;;28.05;20.90;;;13.20;90.70;;;;;;5049221;28;20466;-52
2022/10/14 11:13:24;;;;;;;27.83;21.60;;;13.70;90.50;;;;;;5051465;28;20048;-50
2022/10/14 11:16:12;;;;;;;23.45;19.63;;;13.70;89.90;;;;;;5052023;28;20036;-53
2022/10/14 11:18:48;;;;;;;23.42;20.25;;;13.70;89.40;;;;;;5050476;28;20151;-50
2022/10/14 11:21:41;;;;;;;26.08;19.75;;;13.70;89.10;;;;;;5051909;28;20040;-51
2022/10/14 11:24:35;;;;;;;26.30;20.73;;;13.70;88.70;;;;;;5047150;28;20024;-50
2022/10/14 11:27:07;;;;;;;20.98;16.45;;;13.90;89.00;;;;;;5051061;28;20028;-51
2022/10/14 11:29:54;;;;;;;22.13;17.85;;;13.90;88.20;;;;;;5032969;28;20033;-50
2022/10/14 11:32:45;;;;;;;23.92;19.80;;;14.00;88.10;;;;;;5050957;28;20098;-49
2022/10/14 11:36:01;;;;;;;21.20;17.50;;;14.20;88.10;;;;;;5045371;28;20056;-49
2022/10/14 11:38:52;;;;;;;19.60;17.10;;;14.30;87.80;;;;;;5027055;28;20037;-51
2022/10/14 11:41:58;;;;;;;22.70;19.58;;;14.40;87.00;;;;;;5055287;28;20021;-50
2022/10/14 11:44:37;;;;;;;21.55;17.73;;;14.50;86.20;;;;;;5053420;28;20168;-50
2022/10/14 11:47:13;;;;;;;21.00;18.10;;;14.50;86.60;;;;;;5053588;28;20397;-48
2022/10/14 11:50:11;;;;;;;22.30;19.77;;;14.50;86.30;;;;;;5037033;28;20123;-48
2022/10/14 11:52:43;;;;;;;22.33;18.50;;;14.50;86.10;;;;;;5051079;28;20729;-49
2022/10/14 11:55:18;;;;;;;21.15;17.13;;;14.50;85.90;;;;;;5028470;28;20510;-49
2022/10/14 11:58:11;;;;;;;22.30;18.88;;;14.60;86.30;;;;;;5037753;28;20029;-50
2022/10/14 12:00:42;;;;;;;19.90;16.70;;;14.60;85.80;;;;;;5040543;28;20061;-49
2022/10/14 12:03:26;;;;;;;21.52;17.27;;;14.50;85.40;;;;;;5054171;28;20029;-49
2022/10/14 12:06:23;;;;;;;21.58;18.50;;;14.50;85.40;;;;;;5055113;28;20029;-51
2022/10/14 12:09:13;;;;;;;20.10;16.95;;;14.40;85.70;;;;;;5048744;28;20025;-50
2022/10/14 12:11:43;;;;;;;21.80;19.20;;;14.40;85.90;;;;;;5052442;28;20047;-50
2022/10/14 12:14:42;;;;;;;27.05;19.95;;;14.50;86.50;;;;;;5055243;28;20021;-50
2022/10/14 12:17:27;;;;;;;;;;;14.60;86.10;;;;;;5055360;28;20036;-49
2022/10/14 12:19:55;;;;;;;19.15;17.05;;;14.70;85.70;;;;;;5052309;28;19916;-51
2022/10/14 12:22:27;;;;;;;23.17;18.13;;;14.70;85.00;;;;;;5054706;28;20108;-50
2022/10/14 12:24:58;;;;;;;21.00;17.50;;;14.50;85.00;;;;;;5050306;28;20075;-51
2022/10/14 12:27:27;;;;;;;21.80;17.45;;;14.40;85.20;;;;;;5037328;28;20017;-51
2022/10/14 12:29:57;;;;;;;21.33;18.83;;;14.40;85.90;;;;;;5053413;28;20029;-51
2022/10/14 12:32:29;;;;;;;23.60;19.52;;;14.30;86.20;;;;;;5034281;28;20044;-53
2022/10/14 12:35:32;;;;;;;23.95;19.75;;;14.30;86.60;;;;;;5053651;28;20032;-51
2022/10/14 12:38:05;;;;;;;23.20;20.45;;;14.30;86.80;;;;;;5054097;28;20017;-51
2022/10/14 12:40:32;;;;;;;25.10;22.40;;;14.40;87.00;;;;;;5032612;28;20025;-51
2022/10/14 12:43:02;;;;;;;23.33;20.58;;;14.50;86.40;;;;;;5041532;28;20033;-48
2022/10/14 12:45:33;;;;;;;25.60;22.55;;;14.60;86.30;;;;;;5053207;28;20063;-49
2022/10/14 12:48:25;;;;;;;24.92;22.23;;;14.80;86.10;;;;;;5052086;28;20417;-51
2022/10/14 12:51:09;;;;;;;23.55;21.15;;;14.80;85.30;;;;;;5048016;28;20025;-50
2022/10/14 12:53:38;;;;;;;24.45;21.42;;;14.90;84.90;;;;;;5024840;28;20044;-52
2022/10/14 12:56:06;;;;;;;26.27;22.73;;;15.00;85.00;;;;;;5018935;28;20040;-48
2022/10/14 12:58:54;;;;;;;23.98;20.42;;;15.20;85.20;;;;;;5033447;28;20021;-52
2022/10/14 13:01:21;;;;;;;23.60;21.20;;;15.10;84.70;;;;;;5046285;28;20094;-48
2022/10/14 13:04:17;;;;;;;22.80;20.15;;;15.00;85.00;;;;;;5035058;28;20028;-51
2022/10/14 13:06:44;;;;;;;26.02;21.73;;;15.00;84.80;;;;;;5036329;28;20378;-54
2022/10/14 13:09:17;;;;;;;23.00;19.88;;;14.90;84.90;;;;;;5038550;28;20033;-49
2022/10/14 13:11:54;;;;;;;23.02;18.92;;;14.90;85.00;;;;;;5039971;28;20410;-51
2022/10/14 13:15:03;;;;;;;24.60;20.23;;;14.80;85.10;;;;;;5043229;28;20447;-50
2022/10/14 13:17:47;;;;;;;23.60;20.20;;;14.70;85.50;;;;;;5041183;28;20025;-51
2022/10/14 13:20:50;;;;;;;26.42;21.05;;;14.70;86.10;;;;;;5025582;28;20040;-51
2022/10/14 13:23:43;;;;;;;25.08;22.00;;;14.70;86.20;;;;;;5031717;28;20753;-51
2022/10/14 13:26:23;;;;;;;27.92;21.25;;;14.70;86.40;;;;;;5038141;28;20617;-52
2022/10/14 13:29:16;;;;;;;28.02;23.88;;;14.70;86.70;;;;;;5040570;28;20017;-53
2022/10/14 13:32:00;;;;;;;33.63;23.90;;;14.70;87.30;;;;;;5041119;28;20021;-50
2022/10/14 13:35:04;;;;;;;26.17;21.90;;;14.70;87.90;;;;;;5042355;28;20091;-59
2022/10/14 13:37:57;;;;;;;30.08;23.52;;;14.70;88.20;;;;;;5039921;28;20043;-62
2022/10/14 13:40:45;;;;;;;26.88;23.73;;;14.60;88.30;;;;;;5012297;28;20029;-58
2022/10/14 13:43:37;;;;;;;26.48;23.33;;;14.60;88.70;;;;;;5023171;28;20037;-56
2022/10/14 13:46:41;;;;;;;28.55;24.83;;;14.60;88.50;;;;;;5041412;28;20053;-57
2022/10/14 13:49:16;;;;;;;27.85;24.65;;;14.50;88.90;;;;;;4962036;28;20063;-58
2022/10/14 13:52:21;;;;;;;27.35;23.85;;;14.40;88.90;;;;;;4952879;28;20039;-58
2022/10/14 13:54:48;;;;;;;27.85;24.10;;;14.40;89.50;;;;;;4952976;28;20508;-57
2022/10/14 13:57:16;;;;;;;31.17;26.63;;;14.30;89.90;;;;;;4933416;28;20515;-56
2022/10/14 13:59:44;;;;;;;30.55;26.98;;;14.40;90.10;;;;;;4970833;28;20436;-57
2022/10/14 14:02:15;;;;;;;35.60;28.13;;;14.40;90.00;;;;;;4970438;28;20027;-56
2022/10/14 14:04:50;;;;;;;32.15;26.92;;;14.40;89.90;;;;;;4970596;28;20086;-57
2022/10/14 14:07:23;;;;;;;34.42;28.80;;;14.40;90.10;;;;;;4965533;28;20031;-55
2022/10/14 14:09:54;;;;;;;32.08;27.35;;;14.30;90.20;;;;;;4953397;28;20043;-57
2022/10/14 14:12:21;;;;;;;32.92;26.95;;;14.20;90.20;;;;;;4966691;28;20105;-55
2022/10/14 14:14:48;;;;;;;34.60;27.38;;;14.10;90.20;;;;;;4971279;28;20464;-54
2022/10/14 14:17:20;;;;;;;35.10;29.17;;;14.00;90.40;;;;;;4971510;28;20117;-66
2022/10/14 14:19:50;;;;;;;37.92;29.45;;;14.00;90.70;;;;;;4954788;28;20033;-67
2022/10/14 14:22:40;;;;;;;37.05;30.98;;;13.90;90.80;;;;;;4985364;28;20450;-67
2022/10/14 14:25:23;;;;;;;38.20;29.80;;;14.00;91.10;;;;;;5031247;28;20033;-60
2022/10/14 14:28:01;;;;;;;39.25;31.95;;;14.10;91.40;;;;;;5049845;28;20474;-59
2022/10/14 14:30:34;;;;;;;37.15;29.38;;;14.10;91.40;;;;;;5034470;28;20072;-56
2022/10/14 14:33:05;;;;;;;37.90;31.92;;;14.10;91.50;;;;;;5032743;28;20076;-58
2022/10/14 14:35:33;;;;;;;39.03;30.58;;;14.10;91.50;;;;;;5044224;28;20032;-56
2022/10/14 14:37:59;;;;;;;38.25;32.60;;;14.00;91.50;;;;;;5050622;28;20816;-58
2022/10/14 14:40:29;;;;;;;35.70;29.33;;;13.90;91.60;;;;;;5047097;28;20053;-57
2022/10/14 14:43:01;;;;;;;41.03;31.60;;;13.90;91.70;;;;;;5032661;28;20018;-63
2022/10/14 14:45:33;;;;;;;40.50;31.45;;;13.90;91.80;;;;;;5011774;28;20092;-62
2022/10/14 14:48:05;;;;;;;41.30;32.35;;;13.90;91.90;;;;;;5012505;28;20022;-61
2022/10/14 14:50:42;;;;;;;38.42;31.45;;;13.90;92.00;;;;;;5013413;28;20116;-65
2022/10/14 14:53:30;;;;;;;41.85;33.97;;;13.90;92.00;;;;;;5030889;28;20022;-61
2022/10/14 14:56:15;;;;;;;41.55;32.85;;;13.90;92.10;;;;;;5013725;28;20026;-61
2022/10/14 14:58:49;;;;;;;42.08;34.65;;;13.90;92.20;;;;;;5030858;28;20033;-60
2022/10/14 15:01:27;;;;;;;43.28;35.30;;;13.80;92.20;;;;;;5031644;28;20029;-57
2022/10/14 15:04:19;;;;;;;39.78;32.10;;;13.80;92.30;;;;;;5035671;28;20029;-58
2022/10/14 15:07:23;;;;;;;42.17;33.50;;;13.80;92.40;;;;;;5019988;28;20026;-59
2022/10/14 15:09:59;;;;;;;43.45;33.35;;;13.80;92.50;;;;;;4994398;28;20065;-55
2022/10/14 15:12:37;;;;;;;40.60;32.22;;;13.80;92.60;;;;;;5008893;28;20125;-58
2022/10/14 15:15:04;;;;;;;42.92;33.95;;;13.80;92.60;;;;;;5012302;28;20427;-58
2022/10/14 15:17:46;;;;;;;43.15;32.83;;;13.80;92.50;;;;;;5014615;28;20103;-58
2022/10/14 15:20:33;;;;;;;45.78;35.13;;;13.70;92.60;;;;;;5002733;28;20120;-58
2022/10/14 15:23:02;;;;;;;45.40;34.28;;;13.70;92.60;;;;;;5006356;28;20032;-57
2022/10/14 15:25:31;;;;;;;43.90;34.45;;;13.60;92.70;;;;;;5010206;28;20033;-58
2022/10/14 15:28:03;;;;;;;45.90;35.90;;;13.60;92.80;;;;;;5004593;28;20024;-58
2022/10/14 15:30:34;;;;;;;48.80;36.45;;;13.60;92.90;;;;;;4994322;28;20725;-57
2022/10/14 15:33:13;;;;;;;50.65;38.47;;;13.60;92.90;;;;;;5004086;28;20407;-58
2022/10/14 15:35:40;;;;;;;50.00;37.80;;;13.60;93.10;;;;;;5013115;28;20129;-60
2022/10/14 15:38:17;;;;;;;52.42;39.28;;;13.60;93.10;;;;;;5009546;28;20109;-58
2022/10/14 15:40:45;;;;;;;53.03;41.90;;;13.60;93.20;;;;;;5013034;28;20036;-57
2022/10/14 15:43:15;;;;;;;56.08;41.70;;;13.60;93.30;;;;;;5016624;28;20045;-58
2022/10/14 15:45:43;;;;;;;60.70;45.70;;;13.60;93.30;;;;;;5047557;28;20049;-58
2022/10/14 15:48:17;;;;;;;65.88;45.15;;;13.50;93.40;;;;;;5051446;28;20413;-58
2022/10/14 15:50:46;;;;;;;56.58;44.30;;;13.50;93.50;;;;;;5054093;28;20032;-66
2022/10/14 15:53:12;;;;;;;66.90;47.80;;;13.50;93.60;;;;;;5051982;28;20075;-64
2022/10/14 15:55:38;;;;;;;65.18;48.00;;;13.50;93.60;;;;;;5035965;28;20032;-60
2022/10/14 15:58:05;;;;;;;72.55;49.53;;;13.50;93.70;;;;;;5053719;28;20037;-59
2022/10/14 16:00:33;;;;;;;76.22;53.78;;;13.50;93.80;;;;;;5052000;28;20029;-58
2022/10/14 16:02:59;;;;;;;74.13;50.63;;;13.50;93.80;;;;;;5047139;28;20104;-56
2022/10/14 16:05:28;;;;;;;69.38;49.28;;;13.50;93.90;;;;;;5044640;28;20793;-58
2022/10/14 16:07:55;;;;;;;70.43;52.15;;;13.50;93.90;;;;;;5025091;28;20021;-57
2022/10/14 16:10:24;;;;;;;70.93;50.92;;;13.50;94.00;;;;;;5047136;28;20051;-58
2022/10/14 16:12:50;;;;;;;70.07;49.42;;;13.50;94.00;;;;;;5046079;28;20027;-58
2022/10/14 16:15:28;;;;;;;72.28;49.80;;;13.50;94.10;;;;;;5034482;28;20469;-56
2022/10/14 16:17:54;;;;;;;66.68;49.65;;;13.50;94.10;;;;;;5047611;28;20033;-57
2022/10/14 16:20:21;;;;;;;74.80;51.38;;;13.50;94.10;;;;;;5034540;28;20043;-58
2022/10/14 16:22:47;;;;;;;72.10;51.85;;;13.50;94.20;;;;;;5048145;28;20103;-58
2022/10/14 16:25:38;;;;;;;70.07;50.17;;;13.50;94.20;;;;;;5043625;28;20037;-58
2022/10/14 16:28:06;;;;;;;71.25;48.80;;;13.50;94.20;;;;;;5037440;28;20025;-58
2022/10/14 16:30:34;;;;;;;70.40;47.42;;;13.40;94.20;;;;;;5045483;28;20524;-58
2022/10/14 16:33:01;;;;;;;75.47;52.08;;;13.50;94.30;;;;;;5034577;28;20033;-58
2022/10/14 16:35:27;;;;;;;71.72;48.38;;;13.40;94.30;;;;;;5053375;28;20413;-58
2022/10/14 16:37:54;;;;;;;72.90;47.58;;;13.40;94.30;;;;;;5053156;28;20029;-58
2022/10/14 16:40:22;;;;;;;71.65;48.53;;;13.40;94.30;;;;;;5051762;28;20037;-58
2022/10/14 16:42:48;;;;;;;71.05;49.15;;;13.40;94.40;;;;;;5033997;28;20032;-58
2022/10/14 16:45:17;;;;;;;68.78;48.10;;;13.40;94.40;;;;;;5046892;28;20045;-58
2022/10/14 16:47:44;;;;;;;64.75;46.67;;;13.40;94.40;;;;;;5032813;28;20115;-60
2022/10/14 16:50:11;;;;;;;65.63;46.30;;;13.50;94.40;;;;;;5034201;28;20034;-61
2022/10/14 16:55:23;;;;;;;60.95;43.10;;;13.40;94.40;;;;;;5028743;28;20067;-55
2022/10/14 16:57:50;;;;;;;67.53;46.15;;;13.50;94.50;;;;;;5028285;28;20037;-54
2022/10/14 17:00:18;;;;;;;60.03;41.30;;;13.50;94.50;;;;;;5022395;28;20049;-57
2022/10/14 17:02:45;;;;;;;61.05;42.55;;;13.50;94.50;;;;;;5024677;28;20033;-54
2022/10/14 17:05:13;;;;;;;63.15;44.25;;;13.40;94.50;;;;;;5027012;28;20163;-56
2022/10/14 17:07:39;;;;;;;59.45;41.17;;;13.50;94.60;;;;;;5027564;28;20108;-57
2022/10/14 17:10:07;;;;;;;54.70;39.33;;;13.50;94.60;;;;;;5026267;28;20032;-56
2022/10/14 17:12:34;;;;;;;57.60;38.22;;;13.50;94.60;;;;;;5042691;28;20036;-58
2022/10/14 17:15:01;;;;;;;51.38;35.60;;;13.50;94.60;;;;;;5029448;28;20033;-57
2022/10/14 17:17:28;;;;;;;54.00;35.55;;;13.50;94.60;;;;;;5040639;28;20047;-58
2022/10/14 17:19:55;;;;;;;46.83;34.28;;;13.50;94.60;;;;;;5031095;28;20040;-56
2022/10/14 17:22:21;;;;;;;49.20;34.35;;;13.50;94.60;;;;;;5026790;28;20030;-58
2022/10/14 17:24:49;;;;;;;47.30;33.25;;;13.50;94.70;;;;;;5027474;28;20125;-57
2022/10/14 17:27:18;;;;;;;46.08;33.17;;;13.60;94.70;;;;;;5030567;28;20041;-59
2022/10/14 17:29:45;;;;;;;51.57;35.03;;;13.60;94.70;;;;;;5031772;28;20021;-57
2022/10/14 17:32:11;;;;;;;46.90;31.63;;;13.60;94.70;;;;;;5028923;28;20351;-57
2022/10/14 17:34:42;;;;;;;41.88;31.83;;;13.60;94.70;;;;;;5023898;28;20052;-58
2022/10/14 17:37:08;;;;;;;45.28;31.75;;;13.60;94.80;;;;;;5029295;28;20037;-55
2022/10/14 17:39:36;;;;;;;42.50;30.83;;;13.60;94.80;;;;;;5027263;28;20025;-58
2022/10/14 17:42:02;;;;;;;41.17;30.25;;;13.60;94.80;;;;;;5027507;28;20037;-58
2022/10/14 17:44:29;;;;;;;42.10;30.02;;;13.60;94.80;;;;;;5029097;28;20063;-58
2022/10/14 17:47:00;;;;;;;40.63;30.05;;;13.60;94.80;;;;;;5045832;28;20039;-58
2022/10/14 17:49:30;;;;;;;36.17;29.75;;;13.70;94.80;;;;;;5032341;28;20084;-58
2022/10/14 17:52:01;;;;;;;40.60;29.90;;;13.60;94.90;;;;;;5035201;28;20025;-58
2022/10/14 17:54:29;;;;;;;36.28;29.67;;;13.70;94.80;;;;;;5029877;28;20037;-56
2022/10/14 17:56:59;;;;;;;38.47;27.92;;;13.70;94.90;;;;;;5034624;28;20032;-58
2022/10/14 17:59:25;;;;;;;36.78;28.80;;;13.70;94.90;;;;;;5013028;28;20344;-56
2022/10/14 18:01:52;;;;;;;41.38;29.70;;;13.70;94.90;;;;;;5036643;28;20035;-58
2022/10/14 18:04:19;;;;;;;38.03;30.73;;;13.70;94.90;;;;;;5045551;28;20032;-56
2022/10/14 18:06:46;;;;;;;39.60;30.17;;;13.70;94.90;;;;;;5040321;28;20026;-58
2022/10/14 18:09:13;;;;;;;38.92;29.13;;;13.70;95.00;;;;;;5022993;28;20057;-54
2022/10/14 18:11:41;;;;;;;40.85;31.02;;;13.70;95.00;;;;;;5033343;28;20026;-58
2022/10/14 18:14:11;;;;;;;37.92;28.70;;;13.70;95.00;;;;;;5039155;28;21675;-58
2022/10/14 18:16:39;;;;;;;39.50;29.30;;;13.70;95.00;;;;;;5023173;28;20029;-57
2022/10/14 18:19:15;;;;;;;39.10;30.30;;;13.80;95.00;;;;;;5038496;28;20474;-56
2022/10/14 18:21:43;;;;;;;42.33;30.85;;;13.70;95.00;;;;;;5032450;28;20044;-56
2022/10/14 18:24:11;;;;;;;37.42;28.60;;;13.80;95.00;;;;;;5040780;28;20040;-57
2022/10/14 18:26:39;;;;;;;37.83;29.95;;;13.80;95.00;;;;;;5030873;28;20014;-56
2022/10/14 18:29:07;;;;;;;37.45;30.88;;;13.80;95.00;;;;;;5037740;28;20429;-54
2022/10/14 18:31:34;;;;;;;40.58;31.27;;;13.80;95.10;;;;;;5036424;28;20060;-56
2022/10/14 18:34:02;;;;;;;40.45;31.27;;;13.80;95.10;;;;;;5035602;28;20086;-57
2022/10/14 18:36:31;;;;;;;38.72;30.38;;;13.80;95.00;;;;;;5018828;28;20060;-55
2022/10/14 18:39:06;;;;;;;39.88;30.67;;;13.80;95.10;;;;;;5035352;28;20029;-56
2022/10/14 18:41:35;;;;;;;40.70;30.15;;;13.80;95.10;;;;;;5044435;28;20104;-54
2022/10/14 18:44:01;;;;;;;36.85;31.52;;;13.80;95.10;;;;;;5033746;28;20084;-56
2022/10/14 18:46:31;;;;;;;37.75;30.30;;;13.80;95.10;;;;;;5023359;28;20021;-56
2022/10/14 18:48:59;;;;;;;35.47;29.73;;;13.80;95.10;;;;;;5013564;28;20439;-58
2022/10/14 18:51:28;;;;;;;39.67;30.13;;;13.80;95.10;;;;;;5017042;28;20033;-55
2022/10/14 18:53:58;;;;;;;36.75;30.63;;;13.80;95.10;;;;;;5015765;28;20064;-56
2022/10/14 18:56:29;;;;;;;35.78;28.80;;;13.80;95.10;;;;;;5005808;28;20036;-56
2022/10/14 18:59:03;;;;;;;38.20;30.00;;;13.80;95.10;;;;;;5019938;28;20026;-58
2022/10/14 19:01:30;;;;;;;35.85;28.98;;;13.90;95.20;;;;;;5023907;28;20104;-57
2022/10/14 19:04:01;;;;;;;38.13;30.10;;;13.90;95.20;;;;;;5004951;28;20343;-54
2022/10/14 19:06:29;;;;;;;38.67;30.73;;;13.90;95.20;;;;;;5022730;28;20026;-56
2022/10/14 19:08:57;;;;;;;36.83;31.33;;;13.90;95.10;;;;;;5014380;28;20025;-56
2022/10/14 19:11:24;;;;;;;36.47;29.90;;;13.90;95.10;;;;;;5025608;28;20037;-56
2022/10/14 19:13:56;;;;;;;41.42;31.42;;;13.90;95.20;;;;;;5022819;28;20021;-55
2022/10/14 19:16:35;;;;;;;41.65;31.23;;;13.90;95.20;;;;;;5018332;28;20041;-57
2022/10/14 19:19:03;;;;;;;35.13;29.23;;;13.90;95.20;;;;;;5014530;28;20018;-58
2022/10/14 19:21:32;;;;;;;36.38;30.02;;;13.90;95.20;;;;;;4991321;28;20289;-55
2022/10/14 19:24:01;;;;;;;33.95;28.92;;;13.90;95.20;;;;;;5019729;28;20033;-52
2022/10/14 19:26:30;;;;;;;35.05;28.52;;;13.90;95.20;;;;;;5025641;28;20116;-54
2022/10/14 19:28:57;;;;;;;36.95;30.75;;;13.90;95.20;;;;;;5025775;28;20055;-54
2022/10/14 19:31:27;;;;;;;36.80;29.65;;;13.90;95.20;;;;;;5001770;28;20096;-52
2022/10/14 19:33:58;;;;;;;37.88;28.98;;;13.90;95.20;;;;;;5025890;28;20451;-55
2022/10/14 19:36:25;;;;;;;37.25;29.48;;;13.90;95.20;;;;;;5020941;28;20029;-53
2022/10/14 19:38:58;;;;;;;39.22;29.88;;;13.90;95.30;;;;;;5031405;28;20022;-57
2022/10/14 19:41:27;;;;;;;37.35;30.40;;;13.90;95.20;;;;;;5005629;28;20026;-54
2022/10/14 19:43:56;;;;;;;36.47;29.98;;;13.90;95.20;;;;;;5020420;28;20030;-56
2022/10/14 19:46:28;;;;;;;38.50;30.43;;;13.90;95.30;;;;;;5012192;28;20038;-56
2022/10/14 19:48:57;;;;;;;39.03;32.00;;;13.90;95.30;;;;;;5005305;28;20341;-56
2022/10/14 19:51:26;;;;;;;37.78;30.17;;;13.90;95.30;;;;;;5019427;28;20521;-55
2022/10/14 19:53:56;;;;;;;37.05;29.88;;;13.90;95.30;;;;;;5030535;28;20025;-57
2022/10/14 19:56:25;;;;;;;37.53;30.02;;;13.90;95.30;;;;;;5015492;28;20405;-58
2022/10/14 19:58:53;;;;;;;40.63;32.13;;;13.90;95.20;;;;;;5035168;28;20029;-55
2022/10/14 20:01:22;;;;;;;39.53;31.27;;;13.90;95.30;;;;;;5011852;28;20068;-55
2022/10/14 20:03:50;;;;;;;42.60;33.00;;;13.90;95.30;;;;;;5030940;28;20025;-56
2022/10/14 20:06:18;;;;;;;41.65;33.55;;;13.90;95.30;;;;;;5034277;28;20070;-55
2022/10/14 20:08:48;;;;;;;40.38;32.22;;;13.90;95.30;;;;;;5022993;28;20496;-51
2022/10/14 20:11:18;;;;;;;42.45;34.33;;;13.90;95.30;;;;;;5030636;28;20034;-57
2022/10/14 20:13:45;;;;;;;41.28;30.08;;;13.90;95.30;;;;;;5028829;28;20030;-57
2022/10/14 20:16:12;;;;;;;37.10;30.15;;;13.90;95.30;;;;;;5031979;28;20037;-68
2022/10/14 20:18:42;;;;;;;36.30;31.00;;;13.90;95.30;;;;;;5017041;28;20022;-64
2022/10/14 20:21:11;;;;;;;40.00;30.55;;;13.90;95.30;;;;;;5035360;28;20021;-61
2022/10/14 20:23:39;;;;;;;40.45;30.80;;;13.90;95.30;;;;;;5031473;28;20052;-59
2022/10/14 20:26:10;;;;;;;34.97;28.70;;;13.90;95.30;;;;;;5013264;28;20034;-57
2022/10/14 20:28:37;;;;;;;36.67;28.52;;;13.90;95.30;;;;;;4998139;28;20123;-58
2022/10/14 20:31:13;;;;;;;37.60;29.25;;;13.90;95.30;;;;;;5019011;28;20041;-59
2022/10/14 20:33:40;;;;;;;33.13;27.45;;;13.90;95.30;;;;;;5035392;28;20394;-58
2022/10/14 20:36:12;;;;;;;34.20;27.73;;;13.90;95.30;;;;;;5017423;28;20025;-58
2022/10/14 20:38:40;;;;;;;36.10;27.75;;;13.90;95.30;;;;;;5026822;28;20328;-65
2022/10/14 20:41:25;;;;;;;33.88;27.58;;;13.90;95.30;;;;;;5034980;28;20018;-66
2022/10/14 20:43:56;;;;;;;37.22;27.67;;;13.90;95.30;;;;;;5033886;28;20034;-68
2022/10/14 20:46:25;;;;;;;32.60;25.90;;;13.90;95.40;;;;;;5045811;28;20041;-66
2022/10/14 20:48:56;;;;;;;35.42;27.25;;;14.00;95.40;;;;;;5055001;28;20052;-65
2022/10/14 20:51:23;;;;;;;36.47;25.88;;;13.90;95.40;;;;;;5054006;28;20037;-63
2022/10/14 20:53:52;;;;;;;35.65;27.63;;;13.90;95.40;;;;;;5053025;28;20540;-62
2022/10/14 20:56:22;;;;;;;35.83;27.92;;;14.00;95.40;;;;;;5050267;28;20041;-59
2022/10/14 20:58:59;;;;;;;34.58;26.45;;;14.00;95.40;;;;;;5036642;28;20509;-58